Osceola Municipal, IA

7:00 PM CDT on May 29, 2017 (GMT -0500)
Osceola Municipal

Weather History for KI75 - February, 2013

Change the Weather History Date:

Friday, February 22, 2013

  Actual Average (KCNC) Record (KCNC)
Temperature  
Mean Temperature 22 °F -  
Max Temperature 26 °F 41 °F 75 °F (2017)
Min Temperature 18 °F 20 °F -14 °F (1978)
Degree Days  
Heating Degree Days 43    
Moisture  
Dew Point 18 °F    
Average Humidity 84    
Maximum Humidity 96    
Minimum Humidity 73    
Precipitation  
Precipitation 0.00 in - - ()
Sea Level Pressure  
Sea Level Pressure 29.87 in    
Wind  
Wind Speed 8 mph (West)    
Max Wind Speed 20 mph    
Max Gust Speed 23 mph    
Visibility 7 miles    
Events Snow    
Averages and records for this station are not official NWS values.
T = Trace of Precipitation, MM = Missing Value Source: NWS Daily Summary

Daily Weather History Graph

Daily Weather History Graph

Search for Another Location

Airport or City:

Trip Planner

Search our weather history database for the weather conditions in past years. The results will help you decide how hot, cold, wet, or windy it might be!

Date:

Astronomy

Feb. 22, 2013 Rise Set
Actual Time 6:59 AM CST 5:57 PM CST
Civil Twilight 6:31 AM CST 6:25 PM CST
Nautical Twilight 5:59 AM CST 6:57 PM CST
Astronomical Twilight 5:27 AM CST 7:29 PM CST
Moon 3:09 PM CST (2/22) 4:45 AM CST (2/22)
Length of Visible Light 11h 54m
Length of Day
10h 58m
Waxing Gibbous, 90% of the Moon is Illuminated
Feb 22
Waxing Gibbous
Feb 25
Full
Mar 4
Last Quarter
Mar 11
New
Mar 19
First Quarter

Hourly Weather History & Observations

Time (CST) Temp. Windchill Dew Point Humidity Pressure Visibility Wind Dir Wind Speed Gust Speed Precip Events Conditions
12:15 AM 23.7 °F 14.0 °F 21.9 °F 93% 29.77 in 7.0 mi NE 9.2 mph - N/A   Overcast
12:35 AM 23.9 °F 14.2 °F 22.1 °F 93% 29.77 in 7.0 mi NE 9.2 mph - N/A   Overcast
12:55 AM 24.3 °F 15.4 °F 22.5 °F 93% 29.76 in 7.0 mi ENE 8.1 mph - N/A   Overcast
1:15 AM 24.3 °F 16.3 °F 22.1 °F 91% 29.76 in 10.0 mi NE 6.9 mph - N/A   Overcast
1:35 AM 24.3 °F 16.3 °F 22.1 °F 91% 29.76 in 7.0 mi NE 6.9 mph - N/A Snow Light Snow
1:55 AM 24.1 °F 16.0 °F 21.9 °F 91% 29.76 in 7.0 mi ENE 6.9 mph - N/A Snow Light Snow
2:15 AM 23.9 °F 18.0 °F 21.7 °F 91% 29.76 in 7.0 mi ENE 4.6 mph - N/A Snow Light Snow
2:35 AM 23.7 °F 16.6 °F 21.9 °F 93% 29.75 in 2.0 mi NE 5.8 mph - N/A Snow Light Snow
2:55 AM 23.4 °F 17.4 °F 21.6 °F 93% 29.75 in 3.0 mi NE 4.6 mph - N/A Snow Light Snow
3:15 AM 23.0 °F 18.4 °F 21.2 °F 93% 29.74 in 3.0 mi NNE 3.5 mph - N/A Snow Light Snow
3:35 AM 22.6 °F 18.0 °F 21.0 °F 93% 29.74 in 5.0 mi NNE 3.5 mph - N/A Snow Light Snow
3:55 AM 22.3 °F 17.6 °F 20.8 °F 94% 29.74 in 3.0 mi North 3.5 mph - N/A Snow Light Snow
4:15 AM 22.1 °F - 20.8 °F 95% 29.74 in 2.0 mi Calm Calm - N/A Snow Light Snow
4:35 AM 21.6 °F - 19.9 °F 93% 29.74 in 5.0 mi Calm Calm - N/A Snow Light Snow
4:55 AM 21.6 °F - 20.1 °F 94% 29.74 in 4.0 mi Calm Calm - N/A Snow Light Snow
5:15 AM 21.0 °F 16.2 °F 19.8 °F 95% 29.75 in 4.0 mi West 3.5 mph - N/A Snow Light Snow
5:35 AM 21.0 °F 14.6 °F 19.6 °F 94% 29.76 in 4.0 mi WNW 4.6 mph - N/A Snow Light Snow
5:55 AM 20.7 °F 14.2 °F 19.4 °F 95% 29.76 in 4.0 mi West 4.6 mph - N/A Snow Light Snow
6:15 AM 20.8 °F 14.4 °F 19.4 °F 94% 29.76 in 5.0 mi West 4.6 mph - N/A Snow Light Snow
6:35 AM 20.5 °F 14.0 °F 19.0 °F 94% 29.76 in 3.0 mi WNW 4.6 mph - N/A Snow Light Snow
6:55 AM 18.7 °F 11.9 °F 17.6 °F 96% 29.76 in 4.0 mi WNW 4.6 mph - N/A Snow Light Snow
7:35 AM 18.7 °F 10.6 °F 17.1 °F 93% 29.79 in 2.5 mi West 5.8 mph - N/A   Overcast
7:55 AM 19.2 °F 10.2 °F 17.8 °F 94% 29.79 in 4.0 mi West 6.9 mph - N/A   Overcast
8:15 AM 20.1 °F 11.3 °F 18.7 °F 94% 29.80 in 4.0 mi West 6.9 mph - N/A   Overcast
8:35 AM 20.7 °F 11.9 °F 19.2 °F 94% 29.81 in 5.0 mi West 6.9 mph - N/A   Overcast
8:55 AM 21.0 °F 9.9 °F 19.4 °F 93% 29.83 in 5.0 mi West 10.4 mph - N/A   Overcast
9:15 AM 21.2 °F 8.9 °F 19.6 °F 93% 29.83 in 5.0 mi West 12.7 mph - N/A   Overcast
9:35 AM 21.4 °F 10.4 °F 19.0 °F 91% 29.84 in 7.0 mi West 10.4 mph - N/A   Overcast
9:55 AM 22.5 °F 13.2 °F 19.4 °F 88% 29.85 in 7.0 mi West 8.1 mph - N/A   Overcast
10:15 AM 23.0 °F 13.1 °F 19.4 °F 86% 29.86 in 7.0 mi WSW 9.2 mph - N/A   Overcast
10:35 AM 23.9 °F 11.7 °F 19.4 °F 83% 29.87 in 7.0 mi West 13.8 mph - N/A   Overcast
10:55 AM 24.4 °F 13.0 °F 19.4 °F 81% 29.88 in 7.0 mi West 12.7 mph - N/A   Overcast
11:15 AM 24.6 °F 12.7 °F 19.0 °F 79% 29.88 in 10.0 mi West 13.8 mph - N/A   Overcast
11:35 AM 24.8 °F 14.6 °F 18.9 °F 78% 29.88 in 10.0 mi West 10.4 mph - N/A   Mostly Cloudy
11:55 AM 25.3 °F 13.6 °F 19.2 °F 78% 29.89 in 5.0 mi WSW 13.8 mph - N/A   Haze
12:15 PM 25.3 °F 13.6 °F 18.7 °F 76% 29.90 in 2.0 mi West 13.8 mph - N/A   Haze
12:35 PM 25.3 °F 13.1 °F 18.1 °F 74% 29.89 in 1.0 mi West 15.0 mph - N/A   Haze
12:55 PM 25.5 °F 13.8 °F 18.5 °F 75% 29.89 in 7.0 mi West 13.8 mph - N/A   Scattered Clouds
1:15 PM 26.4 °F 14.0 °F 18.7 °F 73% 29.89 in 5.0 mi West 16.1 mph - N/A   Haze
1:35 PM 25.7 °F 13.1 °F 18.3 °F 74% 29.90 in 4.0 mi West 16.1 mph - N/A   Haze
1:55 PM 25.5 °F 12.9 °F 18.0 °F 73% 29.91 in 10.0 mi West 16.1 mph 19.6 mph N/A   Scattered Clouds
2:15 PM 25.2 °F 11.6 °F 17.8 °F 74% 29.91 in 7.0 mi West 18.4 mph - N/A   Mostly Cloudy
2:35 PM 25.2 °F 11.2 °F 17.6 °F 73% 29.91 in 10.0 mi West 19.6 mph - N/A   Mostly Cloudy
2:55 PM 24.8 °F 11.1 °F 17.6 °F 74% 29.92 in 10.0 mi West 18.4 mph - N/A   Overcast
3:15 PM 24.8 °F 11.5 °F 17.6 °F 74% 29.92 in 10.0 mi West 17.3 mph 21.9 mph N/A   Overcast
3:35 PM 24.4 °F 11.5 °F 17.2 °F 74% 29.93 in 10.0 mi West 16.1 mph 23.0 mph N/A   Overcast
3:55 PM 23.9 °F 11.2 °F 16.7 °F 74% 29.94 in 10.0 mi West 15.0 mph - N/A   Overcast
4:15 PM 23.5 °F 10.8 °F 16.7 °F 75% 29.93 in 10.0 mi West 15.0 mph - N/A   Overcast
4:35 PM 23.4 °F 11.6 °F 17.2 °F 77% 29.94 in 10.0 mi West 12.7 mph - N/A   Overcast
4:55 PM 23.0 °F 11.1 °F 16.5 °F 76% 29.94 in 10.0 mi West 12.7 mph - N/A   Overcast
5:15 PM 23.0 °F 13.1 °F 16.2 °F 75% 29.95 in 10.0 mi West 9.2 mph - N/A   Overcast
5:35 PM 22.8 °F 12.2 °F 16.7 °F 77% 29.96 in 10.0 mi West 10.4 mph - N/A   Overcast
5:55 PM 22.5 °F 12.4 °F 16.7 °F 79% 29.97 in 10.0 mi West 9.2 mph - N/A   Overcast
6:15 PM 22.1 °F 10.6 °F 16.7 °F 80% 29.98 in 10.0 mi West 11.5 mph - N/A   Overcast
6:35 PM 22.1 °F 12.0 °F 16.5 °F 79% 29.98 in 10.0 mi West 9.2 mph - N/A   Overcast
6:55 PM 21.9 °F 11.0 °F 16.3 °F 79% 29.98 in 10.0 mi West 10.4 mph - N/A Snow Light Snow
7:15 PM 21.9 °F 11.7 °F 16.3 °F 79% 29.99 in 10.0 mi West 9.2 mph - N/A   Overcast
7:35 PM 21.7 °F 12.3 °F 16.3 °F 80% 29.99 in 10.0 mi West 8.1 mph - N/A   Overcast
7:55 PM 21.6 °F 12.1 °F 16.0 °F 79% 29.98 in 10.0 mi West 8.1 mph - N/A   Overcast
8:15 PM 21.4 °F 11.9 °F 15.8 °F 79% 29.99 in 10.0 mi West 8.1 mph - N/A   Overcast
8:35 PM 21.2 °F 11.7 °F 15.8 °F 80% 29.99 in 10.0 mi West 8.1 mph - N/A   Overcast
8:55 PM 21.2 °F 11.7 °F 15.8 °F 80% 29.99 in 10.0 mi West 8.1 mph - N/A   Overcast
9:15 PM 21.0 °F 12.4 °F 15.6 °F 80% 29.99 in 10.0 mi West 6.9 mph - N/A Snow Light Snow
9:35 PM 20.8 °F 13.2 °F 15.6 °F 80% 29.99 in 10.0 mi West 5.8 mph - N/A   Overcast
9:55 PM 20.7 °F 11.9 °F 15.6 °F 81% 29.99 in 10.0 mi West 6.9 mph - N/A   Overcast
10:15 PM 20.5 °F 11.7 °F 15.4 °F 81% 29.99 in 10.0 mi WSW 6.9 mph - N/A   Overcast
10:35 PM 20.3 °F 11.5 °F 15.4 °F 81% 29.99 in 10.0 mi WSW 6.9 mph - N/A   Overcast
10:55 PM 20.3 °F 11.5 °F 15.4 °F 81% 29.99 in 10.0 mi WSW 6.9 mph - N/A   Overcast
11:15 PM 20.3 °F 10.6 °F 15.4 °F 81% 29.99 in 10.0 mi SW 8.1 mph - N/A   Overcast
11:35 PM 19.9 °F 10.1 °F 14.9 °F 81% 29.99 in 10.0 mi SW 8.1 mph - N/A   Overcast
11:55 PM 19.2 °F 11.3 °F 14.7 °F 83% 29.98 in 10.0 mi SW 5.8 mph - N/A   Overcast